Hlavní strana
METAR-TAF:

METAR-TAF

Letiště :

Vilhelmina, Švédsko

zeměpisná šířka: 64-34-44N, zeměpisná délka: 016-50-00E, výška: 347 m

Aktuální stav počasí

Zpráva byla vytvořena před 15 minutami, v 03:50 UTC
Západojihozápadní vítr 8 kt
Teplota -2°C
Vlhkost vzduchu 80%
Tlak 982 hPa
Viditelnost 10 km a více
Oblačno až skoro zataženo ve výšce 2800 ft
Oblačno až skoro zataženo ve výšce 8200 ft

METAR: ESNV 020350Z 24008KT 9999 BKN028 BKN082 M02/M05 Q0982

Čas: 06:05 (04:05 UTC)


TAF: chybějící

Stav a předpovědi počasí z více než 4 000 letišť (zprávy METAR a TAF).

Červené a žluté tečky na mapě představují dostupné meteorologické stanice.

Když kurzor umístíte na tečku, zobrazí se název stanice.

Pak kliknutím zobrazíte stav a předpověď počasí.

Chcete-li změnit mapu, kliknutím na zelené tlačítko se znaménkem +mapu přiblížíte, kliknutím na zelené tlačítko se znaménkem – mapu oddálíte a kliknutím na zelené šipky přejdete na sousední mapy.


METAR-TAF: